Aérodrome :
LOGIN :

S'inscrire | Disclaimer

   EN    FR    IT 

 










Légende :    VFR   VFR Marginal   IFR   IFR Intensif   IFR Très Intensif
Visi : 
Plafond : 
>= 8 km
>= 3000ft
5 à 8 km
1000 à 3000 ft
1500m à 5 km
500 à 1000 ft
800 à 1500m
200 à 500 ft
< 800m
< 200 ft
Symboles :   Orages  Brouillard  Fortes neiges  Fortes précipitations  Vent > 20 kt
SIGMETs :   Divers  Orages  Givrage  Turbulence  Onde Orograph.  Cendres Volcan.






- Altitude de l'aérodrome : 125 ft
- Code IATA : MGL


EDLN - Mönchengladbach

DERNIER METAR :
  • 131920Z AUTO VRB01KT 9999 // NCD 22/19 Q1011

METARs EXPIRÉS :
  • 131850Z AUTO 35006KT 9999 // NCD 24/19 Q1011
  • 131820Z 32011KT CAVOK 25/19 Q1011
  • 131750Z 27003KT CAVOK 24/21 Q1011
  • 131720Z VRB01KT CAVOK 24/22 Q1010
  • 131650Z 12006KT 9999 -SHRA SCT065CB 24/21 Q1010
  • 131620Z 17007KT 9999 -SHRA BKN064CB 25/19 Q1011

TAF TAF EDLN
Valide du 13 à 18h jusqu'au 14 à 03h UTC


131700Z 1318/1403 12006KT 9999 FEW040
BECMG 1318/1320 VRB03KT
PROB30
TEMPO 1318/1320 21015G30KT 3000 TSRA BKN040CB



MET'MAP, la Météo Aéronautique d'un coup d'oeil ! - Copyright ORBIFLY Décembre 2007 - Disclaimer

ORBIFLY MET'MAP TEAM :

Programmation & Développement : Alexandra Zaïnal
Sur une idée originale de : Baudouin d'Aumeries
Assistance à la programmation : Marc-Olivier Méhu
Soutien technique & logistique : Manuel Goepfert

Contact : metmap@orbifly.com




SOURCES & CREDITS :

   NOAA